createdAt,value
2022-12-07T00:01:48.882Z,4.57
2022-12-07T00:04:19.961Z,4.60
2022-12-07T00:06:54.425Z,4.52
2022-12-07T00:09:23.214Z,4.44
2022-12-07T00:11:53.717Z,4.39
2022-12-07T00:14:23.185Z,4.45
2022-12-07T00:16:53.498Z,4.50
2022-12-07T00:19:22.077Z,4.52
2022-12-07T00:21:50.430Z,4.55
2022-12-07T00:24:19.135Z,4.60
2022-12-07T00:26:47.501Z,4.65
2022-12-07T00:29:20.563Z,4.80
2022-12-07T00:31:49.504Z,4.70
2022-12-07T00:34:20.662Z,4.77
2022-12-07T00:36:49.388Z,4.64
2022-12-07T00:39:18.073Z,4.66
2022-12-07T00:41:46.464Z,4.50
2022-12-07T00:44:15.001Z,4.59
2022-12-07T00:46:46.414Z,4.56
2022-12-07T00:49:14.936Z,4.54
2022-12-07T00:51:43.422Z,4.59
2022-12-07T00:54:11.914Z,4.65
2022-12-07T00:56:40.477Z,4.60
2022-12-07T00:59:08.924Z,4.63
2022-12-07T01:01:39.032Z,4.42
2022-12-07T01:04:10.045Z,4.48
2022-12-07T01:06:38.459Z,4.48
2022-12-07T01:09:07.223Z,4.48
2022-12-07T01:11:35.831Z,4.43
2022-12-07T01:14:04.504Z,4.41
2022-12-07T01:16:34.864Z,4.49
2022-12-07T01:19:05.740Z,4.53
2022-12-07T01:21:38.780Z,4.54
2022-12-07T01:24:11.973Z,4.45
2022-12-07T01:26:40.925Z,4.36
2022-12-07T01:29:09.553Z,4.40
2022-12-07T01:31:38.018Z,4.45
2022-12-07T01:34:06.831Z,4.33
2022-12-07T01:36:38.320Z,4.34
2022-12-07T01:39:09.123Z,4.32
2022-12-07T01:41:44.277Z,4.30
2022-12-07T01:44:23.423Z,4.39
2022-12-07T01:46:53.568Z,4.36
2022-12-07T01:49:30.552Z,4.40
2022-12-07T01:52:11.355Z,4.42
2022-12-07T01:54:39.916Z,4.46
2022-12-07T01:57:10.431Z,4.34
2022-12-07T01:59:39.848Z,4.35
2022-12-07T02:02:17.867Z,4.40
2022-12-07T02:04:46.649Z,4.35
2022-12-07T02:07:17.739Z,4.34
2022-12-07T02:09:46.148Z,4.40
2022-12-07T02:12:14.696Z,4.37
2022-12-07T02:14:43.613Z,4.25
2022-12-07T02:17:20.838Z,4.30
2022-12-07T02:20:25.846Z,4.31
2022-12-07T02:24:02.962Z,4.23
2022-12-07T02:27:12.051Z,4.16
2022-12-07T02:29:47.814Z,4.16
2022-12-07T02:32:22.086Z,4.01
2022-12-07T02:34:54.714Z,4.14
2022-12-07T02:37:37.849Z,4.16
2022-12-07T02:40:13.018Z,4.16
2022-12-07T02:42:48.116Z,4.11
2022-12-07T02:45:23.507Z,4.08
2022-12-07T02:47:55.262Z,4.07
2022-12-07T02:50:24.414Z,4.11
2022-12-07T02:52:53.022Z,4.08
2022-12-07T02:55:27.126Z,4.07
2022-12-07T02:58:25.428Z,4.08
2022-12-07T03:01:08.957Z,4.14
2022-12-07T03:03:39.761Z,4.20
2022-12-07T03:06:19.455Z,4.17
2022-12-07T03:08:59.635Z,4.21
2022-12-07T03:11:38.356Z,4.22
2022-12-07T03:14:15.717Z,4.16
2022-12-07T03:16:52.899Z,4.13
2022-12-07T03:19:23.799Z,4.17
2022-12-07T03:21:57.084Z,4.15
2022-12-07T03:24:29.786Z,4.09
2022-12-07T03:27:06.851Z,4.12
2022-12-07T03:29:44.011Z,4.06
2022-12-07T03:32:20.066Z,4.15
2022-12-07T03:34:53.402Z,4.08
2022-12-07T03:37:29.265Z,4.16
2022-12-07T03:40:04.937Z,4.18
2022-12-07T03:42:34.881Z,4.11
2022-12-07T03:45:05.776Z,4.17
2022-12-07T03:47:41.688Z,4.12
2022-12-07T03:50:17.088Z,4.13
2022-12-07T03:52:49.839Z,4.09
2022-12-07T03:55:27.391Z,4.07
2022-12-07T03:58:01.639Z,4.21
2022-12-07T04:00:30.339Z,4.23
2022-12-07T04:03:00.624Z,4.07
2022-12-07T04:05:29.304Z,4.12
2022-12-07T04:07:57.975Z,4.18
2022-12-07T04:10:26.627Z,4.19
2022-12-07T04:12:55.053Z,4.19
2022-12-07T04:15:23.870Z,4.34
2022-12-07T04:17:52.794Z,4.25
2022-12-07T04:20:23.063Z,4.23
2022-12-07T04:22:51.591Z,4.23
2022-12-07T04:25:20.084Z,4.36
2022-12-07T04:27:48.437Z,4.43
2022-12-07T04:30:17.108Z,4.44
2022-12-07T04:32:45.587Z,4.30
2022-12-07T04:35:13.998Z,4.35
2022-12-07T04:37:43.932Z,4.34
2022-12-07T04:40:15.323Z,4.34
2022-12-07T04:42:43.820Z,4.18
2022-12-07T04:45:12.626Z,4.23
2022-12-07T04:47:41.123Z,4.28
2022-12-07T04:50:12.067Z,4.21
2022-12-07T04:52:40.394Z,4.25
2022-12-07T04:55:10.634Z,4.21
2022-12-07T04:57:39.002Z,4.30
2022-12-07T05:00:09.451Z,4.18
2022-12-07T05:02:37.859Z,4.22
2022-12-07T05:05:07.017Z,4.21
2022-12-07T05:07:35.407Z,4.22
2022-12-07T05:10:04.028Z,4.15
2022-12-07T05:12:34.099Z,4.25
2022-12-07T05:15:02.468Z,4.21
2022-12-07T05:17:30.738Z,4.24
2022-12-07T05:19:59.206Z,4.25
2022-12-07T05:22:29.122Z,4.19
2022-12-07T05:24:57.594Z,4.23
2022-12-07T05:27:26.235Z,4.28
2022-12-07T05:29:56.041Z,4.34
2022-12-07T05:32:24.461Z,4.30
2022-12-07T05:34:53.494Z,4.39
2022-12-07T05:37:21.822Z,4.39
2022-12-07T05:39:50.294Z,4.44
2022-12-07T05:42:19.262Z,4.50
2022-12-07T05:44:48.916Z,4.46
2022-12-07T05:47:18.981Z,4.46
2022-12-07T05:49:47.376Z,4.44
2022-12-07T05:52:15.780Z,4.55
2022-12-07T05:54:44.205Z,4.58
2022-12-07T05:57:12.622Z,4.57
2022-12-07T05:59:39.999Z,4.58
2022-12-07T06:02:10.823Z,4.60
2022-12-07T06:04:42.944Z,4.55
2022-12-07T06:07:13.203Z,4.62
2022-12-07T06:09:41.783Z,4.54
2022-12-07T06:12:30.481Z,4.61
2022-12-07T06:14:59.027Z,4.55
2022-12-07T06:17:27.528Z,4.50
2022-12-07T06:19:57.340Z,4.55
2022-12-07T06:22:25.813Z,4.58
2022-12-07T06:24:54.218Z,4.63
2022-12-07T06:27:22.637Z,4.61
2022-12-07T06:29:51.053Z,4.72
2022-12-07T06:32:19.548Z,4.69
2022-12-07T06:34:48.719Z,4.66
2022-12-07T06:37:19.198Z,4.72
2022-12-07T06:39:47.731Z,4.69
2022-12-07T06:42:16.109Z,4.66
2022-12-07T06:44:44.527Z,4.69
2022-12-07T06:47:39.433Z,4.60
2022-12-07T06:50:02.066Z,4.67
2022-12-07T06:52:32.911Z,4.55
2022-12-07T06:55:01.332Z,4.63
2022-12-07T06:57:29.734Z,4.69
2022-12-07T06:59:58.178Z,4.63
2022-12-07T07:02:26.536Z,4.60
2022-12-07T07:04:54.945Z,4.67
2022-12-07T07:07:23.317Z,4.68
2022-12-07T07:09:53.125Z,4.72
2022-12-07T07:12:21.536Z,4.66
2022-12-07T07:14:49.989Z,4.70
2022-12-07T07:17:18.572Z,4.67
2022-12-07T07:19:46.952Z,4.73
2022-12-07T07:22:15.327Z,4.71
2022-12-07T07:24:43.797Z,4.72
2022-12-07T07:27:13.563Z,4.66
2022-12-07T07:29:41.943Z,4.71
2022-12-07T07:32:10.324Z,4.84
2022-12-07T07:34:38.692Z,4.78
2022-12-07T07:37:07.133Z,4.78
2022-12-07T07:39:35.574Z,4.85
2022-12-07T07:42:03.990Z,4.82
2022-12-07T07:44:36.284Z,4.73
2022-12-07T07:47:05.317Z,4.85
2022-12-07T07:49:33.813Z,4.92
2022-12-07T07:52:02.251Z,4.87
2022-12-07T07:54:30.582Z,4.84
2022-12-07T07:56:59.026Z,4.87
2022-12-07T07:59:27.604Z,4.86
2022-12-07T08:01:57.487Z,4.82
2022-12-07T08:04:25.976Z,4.87
2022-12-07T08:06:54.735Z,4.96
2022-12-07T08:09:23.322Z,4.95
2022-12-07T08:11:51.711Z,4.97
2022-12-07T08:14:20.095Z,5.06
2022-12-07T08:16:48.517Z,4.99
2022-12-07T08:19:18.392Z,5.01
2022-12-07T08:21:46.918Z,4.95
2022-12-07T08:24:15.972Z,4.94
2022-12-07T08:26:45.020Z,4.83
2022-12-07T08:29:13.355Z,4.97
2022-12-07T08:31:41.856Z,5.01
2022-12-07T08:34:12.293Z,4.90
2022-12-07T08:36:42.439Z,4.90
2022-12-07T08:41:59.485Z,4.87
2022-12-07T08:44:28.068Z,4.94
2022-12-07T08:47:01.654Z,4.95
2022-12-07T08:49:35.076Z,4.98
2022-12-07T08:52:07.561Z,5.01
2022-12-07T08:54:38.836Z,5.04
2022-12-07T08:57:08.221Z,5.02
2022-12-07T08:59:38.498Z,5.05
2022-12-07T09:02:07.896Z,5.00
2022-12-07T09:04:36.332Z,5.12
2022-12-07T09:07:06.520Z,5.32
2022-12-07T09:09:34.935Z,5.36
2022-12-07T09:12:03.393Z,5.39
2022-12-07T09:14:31.990Z,5.46
2022-12-07T09:17:09.148Z,5.32
2022-12-07T09:19:37.869Z,5.43
2022-12-07T09:22:08.912Z,5.49
2022-12-07T09:24:37.384Z,5.49
2022-12-07T09:27:05.872Z,5.50
2022-12-07T09:29:34.262Z,5.53
2022-12-07T09:32:06.761Z,5.78
2022-12-07T09:34:38.367Z,5.59
2022-12-07T09:37:08.518Z,5.61
2022-12-07T09:39:46.137Z,5.68
2022-12-07T09:42:31.052Z,5.78
2022-12-07T09:45:00.658Z,5.56
2022-12-07T09:47:30.049Z,5.64
2022-12-07T09:50:08.281Z,5.79
2022-12-07T09:52:39.111Z,5.54
2022-12-07T09:55:14.619Z,5.69
2022-12-07T09:57:43.966Z,5.80
2022-12-07T10:00:18.038Z,5.96
2022-12-07T10:02:50.203Z,5.82
2022-12-07T10:05:24.935Z,5.85
2022-12-07T10:07:55.035Z,5.87
2022-12-07T10:10:30.642Z,5.94
2022-12-07T10:13:04.324Z,6.21
2022-12-07T10:15:50.444Z,6.25
2022-12-07T10:18:29.961Z,6.22
2022-12-07T10:21:15.336Z,6.26
2022-12-07T10:24:03.852Z,6.33
2022-12-07T10:26:35.116Z,6.38
2022-12-07T10:29:18.988Z,6.36
2022-12-07T10:31:48.218Z,6.17
2022-12-07T10:34:26.151Z,6.41
2022-12-07T10:36:55.901Z,6.60
2022-12-07T10:39:26.406Z,6.46
2022-12-07T10:41:59.624Z,6.42
2022-12-07T10:44:29.964Z,6.56
2022-12-07T10:47:33.922Z,6.58
2022-12-07T10:50:32.378Z,6.53
2022-12-07T10:53:20.343Z,6.80
2022-12-07T10:56:19.479Z,6.75
2022-12-07T10:59:06.596Z,6.64
2022-12-07T11:01:43.877Z,7.05
2022-12-07T11:04:28.861Z,7.30
2022-12-07T11:07:04.124Z,7.31
2022-12-07T11:10:10.733Z,7.52
2022-12-07T11:13:05.506Z,8.19
2022-12-07T11:15:56.795Z,8.38
2022-12-07T11:18:30.692Z,7.99
2022-12-07T11:21:10.143Z,7.64
2022-12-07T11:23:50.676Z,7.64
2022-12-07T11:26:36.118Z,7.41
2022-12-07T11:29:42.794Z,7.14
2022-12-07T11:32:21.239Z,6.97
2022-12-07T11:35:02.198Z,6.90
2022-12-07T11:37:36.453Z,6.80
2022-12-07T11:40:20.889Z,6.77
2022-12-07T11:42:55.378Z,6.84
2022-12-07T11:45:29.380Z,6.90
2022-12-07T11:48:02.643Z,6.85
2022-12-07T11:50:38.942Z,6.77
2022-12-07T11:53:17.428Z,6.84
2022-12-07T11:55:53.567Z,6.85
2022-12-07T11:58:38.421Z,6.91
2022-12-07T12:01:21.661Z,6.74
2022-12-07T12:03:53.743Z,6.89
2022-12-07T12:06:23.712Z,7.19
2022-12-07T12:15:40.732Z,7.22
2022-12-07T12:18:32.919Z,7.07
2022-12-07T12:21:06.646Z,6.91
2022-12-07T12:23:43.658Z,6.86
2022-12-07T12:26:21.179Z,6.89
2022-12-07T12:28:59.490Z,6.95
2022-12-07T12:31:42.322Z,6.81
2022-12-07T12:34:39.573Z,6.91
2022-12-07T12:37:45.358Z,6.86
2022-12-07T12:40:54.269Z,7.05
2022-12-07T12:43:50.404Z,7.25
2022-12-07T12:46:54.121Z,7.48
2022-12-07T12:50:18.094Z,7.27
2022-12-07T12:53:04.992Z,7.20
2022-12-07T12:56:30.321Z,7.21
2022-12-07T12:59:26.117Z,7.33
2022-12-07T13:01:58.608Z,6.98
2022-12-07T13:04:51.759Z,6.94
2022-12-07T13:08:03.546Z,6.95
2022-12-07T13:10:42.719Z,6.90
2022-12-07T13:13:37.685Z,6.91
2022-12-07T13:16:42.378Z,6.92
2022-12-07T13:20:03.033Z,6.95
2022-12-07T13:22:54.347Z,6.95
2022-12-07T13:25:47.580Z,7.12
2022-12-07T13:28:19.381Z,7.20
2022-12-07T13:31:00.876Z,7.51
2022-12-07T13:33:31.611Z,7.38
2022-12-07T13:36:01.512Z,7.24
2022-12-07T13:38:34.062Z,7.02
2022-12-07T13:41:16.369Z,6.89
2022-12-07T13:43:48.101Z,6.76
2022-12-07T13:46:18.463Z,6.53
2022-12-07T13:48:50.228Z,7.03
2022-12-07T13:51:25.656Z,6.83
2022-12-07T13:53:57.341Z,6.62
2022-12-07T13:56:34.845Z,6.52
2022-12-07T13:59:03.819Z,6.57
2022-12-07T14:01:34.240Z,6.46
2022-12-07T14:04:35.300Z,6.41
2022-12-07T14:07:22.993Z,6.42
2022-12-07T14:10:00.498Z,6.36
2022-12-07T14:12:32.307Z,6.43
2022-12-07T14:15:03.722Z,6.39
2022-12-07T14:17:32.532Z,6.32
2022-12-07T14:20:01.828Z,6.25
2022-12-07T14:22:33.974Z,6.29
2022-12-07T14:25:17.549Z,6.21
2022-12-07T14:27:59.571Z,6.21
2022-12-07T14:30:30.869Z,6.15
2022-12-07T14:33:02.885Z,6.20
2022-12-07T14:35:32.823Z,6.20
2022-12-07T14:38:01.399Z,6.29
2022-12-07T14:40:31.431Z,6.36
2022-12-07T14:43:05.245Z,6.21
2022-12-07T14:45:34.038Z,6.23
2022-12-07T14:53:51.359Z,6.03
2022-12-07T14:56:23.704Z,6.03
2022-12-07T14:58:53.672Z,6.03
2022-12-07T15:01:22.289Z,5.94
2022-12-07T15:03:51.298Z,5.72
2022-12-07T15:06:21.188Z,5.61
2022-12-07T15:08:49.612Z,5.47
2022-12-07T15:11:20.385Z,5.56
2022-12-07T15:14:06.359Z,5.37
2022-12-07T15:17:07.015Z,5.41
2022-12-07T15:19:29.648Z,5.45
2022-12-07T15:22:00.875Z,5.37
2022-12-07T15:24:29.829Z,5.38
2022-12-07T15:26:58.384Z,5.32
2022-12-07T15:29:26.945Z,5.37
2022-12-07T15:31:58.336Z,5.61
2022-12-07T15:34:33.476Z,5.58
2022-12-07T15:37:06.658Z,5.60
2022-12-07T15:39:35.193Z,5.48
2022-12-07T15:42:03.611Z,5.62
2022-12-07T15:44:49.789Z,5.51
2022-12-07T15:47:19.639Z,5.50
2022-12-07T15:49:48.080Z,5.50
2022-12-07T15:52:16.913Z,5.53
2022-12-07T15:54:45.393Z,5.53
2022-12-07T15:57:13.832Z,5.48
2022-12-07T15:59:42.435Z,5.34
2022-12-07T16:02:12.222Z,5.51
2022-12-07T16:04:42.351Z,5.35
2022-12-07T16:07:12.460Z,5.33
2022-12-07T16:09:40.995Z,5.33
2022-12-07T16:12:09.813Z,5.36
2022-12-07T16:14:38.553Z,5.41
2022-12-07T16:17:07.718Z,5.39
2022-12-07T16:19:36.989Z,5.53
2022-12-07T16:22:07.414Z,5.53
2022-12-07T16:24:35.948Z,5.56
2022-12-07T16:27:04.302Z,5.50
2022-12-07T16:29:32.917Z,5.47
2022-12-07T16:32:01.354Z,5.44
2022-12-07T16:34:29.800Z,5.45
2022-12-07T16:37:06.101Z,5.39
2022-12-07T16:39:36.684Z,5.49
2022-12-07T16:42:05.705Z,5.48
2022-12-07T16:44:34.152Z,5.48
2022-12-07T16:47:02.781Z,5.52
2022-12-07T16:49:31.366Z,5.46
2022-12-07T16:54:50.837Z,5.49
2022-12-07T16:57:24.059Z,5.50
2022-12-07T16:59:53.365Z,5.52
2022-12-07T17:02:22.338Z,5.41
2022-12-07T17:04:50.803Z,5.33
2022-12-07T17:07:19.373Z,5.39
2022-12-07T17:09:49.210Z,5.27
2022-12-07T17:12:17.641Z,5.29
2022-12-07T17:15:03.674Z,5.32
2022-12-07T17:17:33.394Z,5.30
2022-12-07T17:20:02.063Z,5.17
2022-12-07T17:22:30.595Z,5.33
2022-12-07T17:25:00.615Z,5.28
2022-12-07T17:27:29.224Z,5.35
2022-12-07T17:29:57.620Z,5.32
2022-12-07T17:32:26.147Z,5.37
2022-12-07T17:34:54.718Z,5.31
2022-12-07T17:37:23.130Z,5.27
2022-12-07T17:39:51.709Z,5.25
2022-12-07T17:42:40.509Z,5.26
2022-12-07T17:45:12.401Z,5.35
2022-12-07T17:47:41.683Z,5.29
2022-12-07T17:50:11.502Z,5.38
2022-12-07T17:52:59.131Z,5.29
2022-12-07T17:55:27.801Z,5.31
2022-12-07T17:57:57.636Z,5.32
2022-12-07T18:00:26.197Z,5.29
2022-12-07T18:02:55.052Z,5.25
2022-12-07T18:05:23.886Z,5.23
2022-12-07T18:07:53.132Z,5.22
2022-12-07T18:10:21.808Z,5.19
2022-12-07T18:12:52.307Z,5.26
2022-12-07T18:15:22.519Z,5.22
2022-12-07T18:17:52.064Z,5.14
2022-12-07T18:20:20.747Z,5.26
2022-12-07T18:22:49.132Z,5.30
2022-12-07T18:25:17.628Z,5.28
2022-12-07T18:27:46.019Z,5.28
2022-12-07T18:30:15.465Z,5.26
2022-12-07T18:32:45.282Z,5.30
2022-12-07T18:35:13.715Z,5.29
2022-12-07T18:37:42.670Z,5.27
2022-12-07T18:40:13.171Z,5.35
2022-12-07T18:42:41.675Z,5.35
2022-12-07T18:45:11.274Z,5.33
2022-12-07T18:47:39.639Z,5.26
2022-12-07T18:50:11.541Z,5.26
2022-12-07T18:52:40.004Z,5.37
2022-12-07T18:55:09.658Z,5.34
2022-12-07T18:57:38.104Z,5.28
2022-12-07T19:00:08.589Z,5.29
2022-12-07T19:02:37.057Z,5.34
2022-12-07T19:05:06.695Z,5.35
2022-12-07T19:07:36.965Z,5.22
2022-12-07T19:10:08.167Z,5.14
2022-12-07T19:12:37.573Z,5.26
2022-12-07T19:15:08.691Z,5.27
2022-12-07T19:17:37.830Z,5.26
2022-12-07T19:20:09.719Z,5.26
2022-12-07T19:22:39.738Z,5.29
2022-12-07T19:25:09.402Z,5.28
2022-12-07T19:27:37.930Z,5.32
2022-12-07T19:30:10.186Z,5.29
2022-12-07T19:32:39.153Z,5.29
2022-12-07T19:35:09.249Z,5.25
2022-12-07T19:37:39.509Z,5.29
2022-12-07T19:40:09.917Z,5.27
2022-12-07T19:42:38.393Z,5.24
2022-12-07T19:45:08.232Z,5.27
2022-12-07T19:47:36.645Z,5.25
2022-12-07T19:50:05.823Z,5.25
2022-12-07T19:52:36.792Z,5.23
2022-12-07T19:55:08.184Z,5.25
2022-12-07T19:57:36.678Z,5.23
2022-12-07T20:00:07.151Z,5.23
2022-12-07T20:02:36.923Z,5.18
2022-12-07T20:05:06.700Z,5.09
2022-12-07T20:07:39.049Z,5.10
2022-12-07T20:10:10.914Z,4.97
2022-12-07T20:13:11.195Z,5.05
2022-12-07T20:15:39.649Z,5.05
2022-12-07T20:18:08.083Z,4.98
2022-12-07T20:20:36.518Z,5.07
2022-12-07T20:23:04.977Z,5.02
2022-12-07T20:25:37.548Z,5.05
2022-12-07T20:28:06.311Z,5.00
2022-12-07T20:30:34.911Z,5.06
2022-12-07T20:33:03.353Z,5.00
2022-12-07T20:35:31.802Z,5.02
2022-12-07T20:38:00.234Z,4.94
2022-12-07T20:40:28.660Z,4.93
2022-12-07T20:42:58.486Z,4.89
2022-12-07T20:45:26.903Z,4.93
2022-12-07T20:47:55.350Z,4.94
2022-12-07T20:50:24.395Z,4.93
2022-12-07T20:52:58.888Z,4.91
2022-12-07T20:55:28.772Z,4.90
2022-12-07T20:57:58.624Z,4.88
2022-12-07T21:00:27.135Z,4.78
2022-12-07T21:02:56.914Z,4.87
2022-12-07T21:05:26.109Z,4.68
2022-12-07T21:07:54.594Z,4.80
2022-12-07T21:10:23.221Z,4.78
2022-12-07T21:12:55.716Z,4.80
2022-12-07T21:15:25.809Z,4.71
2022-12-07T21:17:54.226Z,4.65
2022-12-07T21:20:22.628Z,4.66
2022-12-07T21:22:51.076Z,4.64
2022-12-07T21:25:19.701Z,4.61
2022-12-07T21:27:48.178Z,4.59
2022-12-07T21:30:16.784Z,4.59
2022-12-07T21:32:46.537Z,4.62
2022-12-07T21:35:15.212Z,4.64
2022-12-07T21:37:43.682Z,4.66
2022-12-07T21:40:16.799Z,4.62
2022-12-07T21:42:46.043Z,4.61
2022-12-07T21:45:14.526Z,4.42
2022-12-07T21:47:42.986Z,4.42
2022-12-07T21:50:13.545Z,4.52
2022-12-07T21:52:42.201Z,4.47
2022-12-07T21:55:11.553Z,4.42
2022-12-07T21:57:41.120Z,4.51
2022-12-07T22:00:11.367Z,4.47
2022-12-07T22:02:40.377Z,4.41
2022-12-07T22:05:09.924Z,4.44
2022-12-07T22:07:39.785Z,4.40
2022-12-07T22:10:10.050Z,4.34
2022-12-07T22:12:38.485Z,4.23
2022-12-07T22:15:07.720Z,4.08
2022-12-07T22:17:36.085Z,4.11
2022-12-07T22:20:05.381Z,4.09
2022-12-07T22:22:33.750Z,4.23
2022-12-07T22:25:03.901Z,4.14
2022-12-07T22:27:32.380Z,4.19
2022-12-07T22:30:00.787Z,4.17
2022-12-07T22:35:19.455Z,4.24
2022-12-07T22:37:47.890Z,4.10
2022-12-07T22:40:19.068Z,4.07
2022-12-07T22:42:47.428Z,4.06
2022-12-07T22:45:18.060Z,4.07
2022-12-07T22:47:46.658Z,4.33
2022-12-07T22:50:15.614Z,4.32
2022-12-07T22:52:44.074Z,4.32
2022-12-07T22:55:12.454Z,4.24
2022-12-07T22:57:42.274Z,4.28
2022-12-07T23:00:12.231Z,4.22
2022-12-07T23:02:40.701Z,4.22
2022-12-07T23:05:10.374Z,4.18
2022-12-07T23:07:39.272Z,4.13
2022-12-07T23:10:09.821Z,4.15
2022-12-07T23:12:55.592Z,4.11
2022-12-07T23:15:25.317Z,4.12
2022-12-07T23:17:53.783Z,3.99
2022-12-07T23:20:22.138Z,3.88
2022-12-07T23:22:50.533Z,3.95
2022-12-07T23:25:19.116Z,3.95
2022-12-07T23:27:47.592Z,3.94
2022-12-07T23:30:16.110Z,3.97
2022-12-07T23:32:46.013Z,3.92
2022-12-07T23:35:14.323Z,3.78
2022-12-07T23:37:42.686Z,3.79
2022-12-07T23:40:11.660Z,3.81
2022-12-07T23:42:40.127Z,3.91
2022-12-07T23:45:09.862Z,4.03
2022-12-07T23:47:38.239Z,4.04
2022-12-07T23:50:10.475Z,4.05
2022-12-07T23:52:38.918Z,4.00
2022-12-07T23:55:08.832Z,4.01
2022-12-07T23:57:37.171Z,4.03
